createdAt,value
2023-03-15T00:01:38.363Z,2.47
2023-03-15T00:04:27.160Z,1.73
2023-03-15T00:07:13.576Z,1.90
2023-03-15T00:10:00.509Z,2.10
2023-03-15T00:12:47.256Z,2.40
2023-03-15T00:15:34.018Z,2.40
2023-03-15T00:18:22.169Z,2.20
2023-03-15T00:21:09.039Z,1.63
2023-03-15T00:23:55.882Z,2.20
2023-03-15T00:26:42.669Z,1.70
2023-03-15T00:29:29.291Z,2.23
2023-03-15T00:32:16.270Z,1.83
2023-03-15T00:35:04.419Z,2.47
2023-03-15T00:37:51.568Z,2.10
2023-03-15T00:40:38.991Z,2.10
2023-03-15T00:43:25.908Z,2.57
2023-03-15T00:46:13.253Z,2.47
2023-03-15T00:48:59.847Z,1.53
2023-03-15T00:51:48.225Z,1.70
2023-03-15T00:54:35.487Z,1.60
2023-03-15T00:57:22.259Z,2.67
2023-03-15T01:00:11.380Z,1.97
2023-03-15T01:02:57.920Z,1.87
2023-03-15T01:05:44.708Z,2.77
2023-03-15T01:08:32.880Z,1.80
2023-03-15T01:11:24.319Z,1.90
2023-03-15T01:14:11.546Z,2.70
2023-03-15T01:16:58.090Z,2.20
2023-03-15T01:19:44.833Z,1.97
2023-03-15T01:22:32.411Z,1.97
2023-03-15T01:25:20.583Z,1.97
2023-03-15T01:28:07.232Z,2.13
2023-03-15T01:30:55.027Z,2.17
2023-03-15T01:33:41.869Z,1.97
2023-03-15T01:36:28.750Z,1.60
2023-03-15T01:39:16.005Z,2.07
2023-03-15T01:42:06.277Z,2.20
2023-03-15T01:44:55.591Z,2.30
2023-03-15T01:47:42.602Z,1.33
2023-03-15T01:50:31.142Z,2.00
2023-03-15T01:53:18.483Z,1.80
2023-03-15T01:56:07.364Z,1.70
2023-03-15T01:58:59.836Z,2.60
2023-03-15T02:01:48.091Z,1.73
2023-03-15T02:04:38.128Z,1.83
2023-03-15T02:07:27.748Z,2.03
2023-03-15T02:10:18.681Z,1.70
2023-03-15T02:13:08.007Z,2.10
2023-03-15T02:15:56.224Z,2.03
2023-03-15T02:18:49.825Z,1.73
2023-03-15T02:21:45.922Z,1.80
2023-03-15T02:24:44.043Z,1.70
2023-03-15T02:27:35.582Z,2.20
2023-03-15T02:30:22.215Z,2.13
2023-03-15T02:33:15.112Z,2.10
2023-03-15T02:36:09.934Z,1.80
2023-03-15T02:38:58.018Z,1.90
2023-03-15T02:41:49.270Z,1.83
2023-03-15T02:44:45.362Z,2.20
2023-03-15T02:47:35.012Z,2.10
2023-03-15T02:50:21.967Z,2.27
2023-03-15T02:53:08.766Z,1.80
2023-03-15T02:55:55.541Z,1.97
2023-03-15T02:58:46.345Z,2.10
2023-03-15T03:01:41.460Z,2.20
2023-03-15T03:04:32.786Z,2.23
2023-03-15T03:07:20.530Z,2.13
2023-03-15T03:10:16.070Z,2.00
2023-03-15T03:13:11.903Z,2.47
2023-03-15T03:15:59.768Z,1.93
2023-03-15T03:18:51.485Z,1.90
2023-03-15T03:21:38.257Z,2.20
2023-03-15T03:24:25.972Z,1.63
2023-03-15T03:27:15.179Z,1.80
2023-03-15T03:30:03.861Z,2.40
2023-03-15T03:32:53.261Z,2.77
2023-03-15T03:35:42.893Z,2.17
2023-03-15T03:38:29.859Z,2.40
2023-03-15T03:41:19.028Z,1.80
2023-03-15T03:44:06.350Z,2.43
2023-03-15T03:46:53.065Z,2.03
2023-03-15T03:49:39.848Z,2.30
2023-03-15T03:52:27.969Z,2.17
2023-03-15T03:55:25.603Z,1.90
2023-03-15T03:58:13.864Z,2.57
2023-03-15T04:01:06.440Z,2.10
2023-03-15T04:03:54.682Z,2.27
2023-03-15T04:06:45.913Z,2.00
2023-03-15T04:09:37.576Z,2.33
2023-03-15T04:12:25.010Z,2.20
2023-03-15T04:15:14.220Z,2.27
2023-03-15T04:18:05.942Z,2.57
2023-03-15T04:20:58.280Z,2.00
2023-03-15T04:23:45.599Z,1.87
2023-03-15T04:26:51.033Z,2.07
2023-03-15T04:29:50.753Z,2.50
2023-03-15T04:33:04.608Z,2.37
2023-03-15T04:36:10.096Z,2.20
2023-03-15T04:39:24.530Z,2.40
2023-03-15T04:42:27.223Z,3.00
2023-03-15T04:45:28.846Z,2.43
2023-03-15T04:48:33.947Z,2.30
2023-03-15T04:51:39.654Z,2.13
2023-03-15T04:54:49.505Z,2.57
2023-03-15T04:57:53.098Z,2.50
2023-03-15T05:01:09.430Z,2.37
2023-03-15T05:04:31.674Z,2.20
2023-03-15T05:07:39.815Z,1.90
2023-03-15T05:10:41.632Z,2.10
2023-03-15T05:14:05.215Z,2.10
2023-03-15T05:17:23.009Z,2.10
2023-03-15T05:20:23.560Z,2.23
2023-03-15T05:23:28.891Z,1.87
2023-03-15T05:26:48.307Z,2.27
2023-03-15T05:29:47.156Z,2.27
2023-03-15T05:32:52.487Z,2.70
2023-03-15T05:36:06.260Z,1.93
2023-03-15T05:39:16.842Z,2.13
2023-03-15T05:42:22.110Z,2.23
2023-03-15T05:45:21.124Z,1.97
2023-03-15T05:48:27.742Z,2.33
2023-03-15T05:51:25.224Z,2.10
2023-03-15T05:54:30.995Z,2.23
2023-03-15T05:57:37.864Z,1.77
2023-03-15T06:00:52.435Z,2.47
2023-03-15T06:03:56.252Z,2.20
2023-03-15T06:06:47.267Z,2.30
2023-03-15T06:09:34.493Z,1.63
2023-03-15T06:12:22.193Z,2.27
2023-03-15T06:15:10.398Z,2.57
2023-03-15T06:17:58.777Z,2.20
2023-03-15T06:20:45.860Z,2.20
2023-03-15T06:23:33.788Z,1.57
2023-03-15T06:26:21.011Z,2.07
2023-03-15T06:29:08.836Z,1.63
2023-03-15T06:31:55.474Z,2.03
2023-03-15T06:34:45.746Z,1.87
2023-03-15T06:37:36.051Z,2.23
2023-03-15T06:40:23.227Z,2.53
2023-03-15T06:43:14.242Z,2.60
2023-03-15T06:46:01.411Z,1.77
2023-03-15T06:48:48.109Z,2.50
2023-03-15T06:51:36.918Z,2.03
2023-03-15T06:54:23.867Z,2.33
2023-03-15T06:57:10.895Z,2.10
2023-03-15T06:59:57.283Z,2.03
2023-03-15T07:02:44.419Z,2.27
2023-03-15T07:05:31.487Z,1.77
2023-03-15T07:08:20.481Z,2.10
2023-03-15T07:11:07.520Z,2.00
2023-03-15T07:13:54.423Z,2.73
2023-03-15T07:16:41.302Z,1.80
2023-03-15T07:19:28.177Z,2.10
2023-03-15T07:22:15.160Z,2.40
2023-03-15T07:25:03.014Z,2.63
2023-03-15T07:27:50.092Z,2.43
2023-03-15T07:30:36.790Z,2.60
2023-03-15T07:33:24.274Z,2.80
2023-03-15T07:36:11.128Z,2.17
2023-03-15T07:38:58.082Z,2.23
2023-03-15T07:41:46.184Z,2.10
2023-03-15T07:44:40.663Z,1.80
2023-03-15T07:47:27.426Z,2.43
2023-03-15T07:50:16.928Z,3.03
2023-03-15T07:53:04.654Z,2.23
2023-03-15T07:55:51.441Z,2.70
2023-03-15T07:58:39.550Z,2.80
2023-03-15T08:01:26.184Z,2.70
2023-03-15T08:04:13.101Z,3.00
2023-03-15T08:06:59.985Z,2.57
2023-03-15T08:09:48.499Z,2.50
2023-03-15T08:12:35.334Z,2.50
2023-03-15T08:15:23.252Z,2.87
2023-03-15T08:18:09.926Z,2.93
2023-03-15T08:20:57.024Z,5.50
2023-03-15T08:23:44.429Z,2.60
2023-03-15T08:26:30.827Z,2.90
2023-03-15T08:29:17.749Z,3.13
2023-03-15T08:32:06.679Z,2.63
2023-03-15T08:34:54.814Z,2.67
2023-03-15T08:37:48.283Z,2.50
2023-03-15T08:40:39.950Z,2.73
2023-03-15T08:43:27.727Z,2.60
2023-03-15T08:46:15.242Z,2.87
2023-03-15T08:49:05.012Z,2.87
2023-03-15T08:51:52.632Z,2.93
2023-03-15T08:54:40.890Z,2.43
2023-03-15T08:57:29.388Z,2.33
2023-03-15T09:00:20.868Z,2.37
2023-03-15T09:03:07.699Z,2.40
2023-03-15T09:05:58.458Z,2.63
2023-03-15T09:08:44.863Z,2.60
2023-03-15T09:11:31.514Z,2.60
2023-03-15T09:14:18.411Z,2.80
2023-03-15T09:17:05.393Z,2.33
2023-03-15T09:19:52.598Z,2.87
2023-03-15T09:22:40.885Z,2.90
2023-03-15T09:25:28.185Z,2.80
2023-03-15T09:28:15.296Z,2.90
2023-03-15T09:31:06.631Z,2.40
2023-03-15T09:33:53.316Z,2.17
2023-03-15T09:36:40.292Z,2.20
2023-03-15T09:39:28.597Z,2.20
2023-03-15T09:42:20.036Z,3.23
2023-03-15T09:45:18.835Z,3.03
2023-03-15T09:48:11.998Z,2.37
2023-03-15T09:51:03.376Z,2.87
2023-03-15T09:53:57.890Z,1.70
2023-03-15T09:56:54.467Z,2.33
2023-03-15T09:59:44.214Z,2.43
2023-03-15T10:02:32.344Z,2.00
2023-03-15T10:05:23.776Z,2.87
2023-03-15T10:08:12.799Z,2.13
2023-03-15T10:11:08.434Z,2.17
2023-03-15T10:14:11.609Z,2.40
2023-03-15T10:16:58.351Z,2.50
2023-03-15T10:19:51.062Z,2.30
2023-03-15T10:22:42.046Z,2.70
2023-03-15T10:25:30.122Z,2.30
2023-03-15T10:28:25.295Z,1.87
2023-03-15T10:31:25.731Z,2.30
2023-03-15T10:34:19.813Z,2.43
2023-03-15T10:37:06.739Z,2.40
2023-03-15T10:39:57.444Z,2.47
2023-03-15T10:42:45.545Z,2.70
2023-03-15T10:45:33.973Z,2.93
2023-03-15T10:48:22.008Z,2.20
2023-03-15T10:51:18.975Z,2.30
2023-03-15T10:54:08.576Z,2.90
2023-03-15T10:57:00.759Z,2.27
2023-03-15T10:59:58.397Z,2.30
2023-03-15T11:02:50.738Z,2.30
2023-03-15T11:05:44.105Z,2.07
2023-03-15T11:08:39.025Z,2.30
2023-03-15T11:11:26.842Z,2.07
2023-03-15T11:14:13.839Z,1.87
2023-03-15T11:17:02.637Z,2.43
2023-03-15T11:19:56.278Z,2.43
2023-03-15T11:22:44.720Z,2.00
2023-03-15T11:25:33.303Z,1.87
2023-03-15T11:28:23.740Z,1.83
2023-03-15T11:31:10.355Z,2.10
2023-03-15T11:33:59.805Z,1.70
2023-03-15T11:36:58.705Z,2.53
2023-03-15T11:40:11.369Z,2.30
2023-03-15T11:43:03.035Z,2.13
2023-03-15T11:45:55.255Z,1.70
2023-03-15T11:49:16.317Z,2.00
2023-03-15T11:52:03.134Z,2.10
2023-03-15T11:54:50.019Z,1.90
2023-03-15T11:57:41.824Z,1.57
2023-03-15T12:00:52.536Z,2.47
2023-03-15T12:03:41.617Z,2.47
2023-03-15T12:06:38.447Z,1.93
2023-03-15T12:09:49.150Z,1.53
2023-03-15T12:12:39.044Z,1.80
2023-03-15T12:15:50.848Z,1.97
2023-03-15T12:18:44.972Z,1.80
2023-03-15T12:21:35.157Z,1.77
2023-03-15T12:24:25.162Z,1.80
2023-03-15T12:27:17.902Z,1.50
2023-03-15T12:30:08.822Z,1.67
2023-03-15T12:32:57.284Z,2.07
2023-03-15T12:35:44.460Z,2.40
2023-03-15T12:38:37.735Z,1.53
2023-03-15T12:41:39.816Z,1.73
2023-03-15T12:44:38.766Z,2.10
2023-03-15T12:47:26.776Z,1.57
2023-03-15T12:50:39.713Z,1.83
2023-03-15T12:53:38.877Z,1.80
2023-03-15T12:56:44.917Z,1.70
2023-03-15T12:59:41.745Z,1.97
2023-03-15T13:02:43.257Z,1.50
2023-03-15T13:05:36.316Z,1.80
2023-03-15T13:08:25.721Z,1.80
2023-03-15T13:11:22.942Z,1.63
2023-03-15T13:14:22.552Z,1.87
2023-03-15T13:17:22.787Z,1.60
2023-03-15T13:20:42.062Z,1.70
2023-03-15T13:23:30.613Z,1.67
2023-03-15T13:26:36.052Z,1.40
2023-03-15T13:29:28.521Z,2.00
2023-03-15T13:32:17.703Z,1.80
2023-03-15T13:35:04.582Z,1.63
2023-03-15T13:38:02.033Z,1.40
2023-03-15T13:40:48.860Z,1.70
2023-03-15T13:43:37.690Z,1.90
2023-03-15T13:46:27.400Z,1.93
2023-03-15T13:49:14.005Z,1.40
2023-03-15T13:52:03.258Z,1.60
2023-03-15T13:54:55.085Z,1.00
2023-03-15T13:57:42.430Z,1.63
2023-03-15T14:00:33.883Z,1.17
2023-03-15T14:03:23.868Z,1.50
2023-03-15T14:06:14.334Z,1.83
2023-03-15T14:09:07.751Z,1.73
2023-03-15T14:12:07.389Z,1.80
2023-03-15T14:14:54.909Z,1.87
2023-03-15T14:17:53.832Z,1.30
2023-03-15T14:20:42.593Z,1.33
2023-03-15T14:23:31.459Z,1.30
2023-03-15T14:26:20.339Z,1.67
2023-03-15T14:29:17.026Z,1.50
2023-03-15T14:32:06.922Z,2.07
2023-03-15T14:35:02.046Z,1.33
2023-03-15T14:37:49.722Z,1.60
2023-03-15T14:40:39.324Z,1.50
2023-03-15T14:43:25.865Z,1.53
2023-03-15T14:46:14.014Z,1.60
2023-03-15T14:49:01.019Z,1.53
2023-03-15T14:51:48.421Z,1.43
2023-03-15T14:54:35.352Z,1.30
2023-03-15T14:57:21.962Z,2.00
2023-03-15T15:00:13.846Z,1.40
2023-03-15T15:03:02.577Z,1.70
2023-03-15T15:05:49.540Z,1.90
2023-03-15T15:08:40.070Z,1.40
2023-03-15T15:11:26.968Z,1.57
2023-03-15T15:14:14.436Z,1.50
2023-03-15T15:17:01.529Z,1.17
2023-03-15T15:19:49.494Z,1.30
2023-03-15T15:22:36.281Z,1.30
2023-03-15T15:25:24.683Z,1.10
2023-03-15T15:28:15.708Z,1.57
2023-03-15T15:31:05.530Z,1.07
2023-03-15T15:33:52.784Z,1.17
2023-03-15T15:36:43.508Z,1.40
2023-03-15T15:39:30.144Z,1.23
2023-03-15T15:42:16.927Z,1.27
2023-03-15T15:45:03.613Z,1.53
2023-03-15T15:47:50.325Z,1.40
2023-03-15T15:50:37.728Z,1.47
2023-03-15T15:53:25.784Z,1.50
2023-03-15T15:56:12.994Z,1.27
2023-03-15T15:59:00.177Z,1.13
2023-03-15T16:02:00.229Z,1.33
2023-03-15T16:04:47.561Z,1.53
2023-03-15T16:07:34.335Z,1.57
2023-03-15T16:10:25.372Z,1.40
2023-03-15T16:13:13.516Z,1.57
2023-03-15T16:16:00.547Z,1.50
2023-03-15T16:18:47.204Z,1.50
2023-03-15T16:21:38.321Z,1.30
2023-03-15T16:24:27.883Z,1.50
2023-03-15T16:27:18.470Z,1.37
2023-03-15T16:30:05.835Z,1.10
2023-03-15T16:32:55.478Z,1.40
2023-03-15T16:35:42.329Z,1.70
2023-03-15T16:38:32.579Z,1.50
2023-03-15T16:41:19.364Z,1.37
2023-03-15T16:44:12.778Z,1.47
2023-03-15T16:46:59.492Z,1.43
2023-03-15T16:49:46.288Z,1.23
2023-03-15T16:52:33.802Z,1.30
2023-03-15T16:55:24.808Z,1.30
2023-03-15T16:58:19.067Z,1.23
2023-03-15T17:01:08.478Z,2.10
2023-03-15T17:03:54.973Z,1.50
2023-03-15T17:06:42.810Z,1.40
2023-03-15T17:09:29.841Z,1.70
2023-03-15T17:12:23.131Z,1.40
2023-03-15T17:15:11.743Z,1.50
2023-03-15T17:18:00.481Z,1.97
2023-03-15T17:20:49.235Z,1.50
2023-03-15T17:23:36.425Z,1.30
2023-03-15T17:26:24.868Z,1.83
2023-03-15T17:29:14.916Z,1.60
2023-03-15T17:32:02.227Z,1.90
2023-03-15T17:34:50.264Z,1.60
2023-03-15T17:37:39.242Z,1.60
2023-03-15T17:40:27.927Z,1.40
2023-03-15T17:43:17.111Z,2.10
2023-03-15T17:46:03.701Z,1.70
2023-03-15T17:48:50.862Z,1.80
2023-03-15T17:51:39.002Z,2.03
2023-03-15T17:54:25.739Z,2.33
2023-03-15T17:57:13.854Z,2.20
2023-03-15T18:00:00.615Z,1.80
2023-03-15T18:02:55.037Z,1.97
2023-03-15T18:05:43.773Z,1.77
2023-03-15T18:08:32.299Z,1.70
2023-03-15T18:11:28.824Z,1.93
2023-03-15T18:14:18.170Z,1.90
2023-03-15T18:17:04.703Z,1.60
2023-03-15T18:19:51.653Z,1.70
2023-03-15T18:22:40.457Z,1.73
2023-03-15T18:25:31.473Z,1.40
2023-03-15T18:28:18.262Z,2.07
2023-03-15T18:31:05.550Z,1.90
2023-03-15T18:33:53.102Z,1.73
2023-03-15T18:36:39.602Z,2.17
2023-03-15T18:39:27.082Z,1.60
2023-03-15T18:42:15.309Z,1.90
2023-03-15T18:45:02.290Z,1.80
2023-03-15T18:47:49.555Z,1.83
2023-03-15T18:50:36.613Z,2.17
2023-03-15T18:53:24.182Z,2.33
2023-03-15T18:56:16.628Z,2.63
2023-03-15T18:59:05.121Z,2.30
2023-03-15T19:01:52.500Z,2.37
2023-03-15T19:04:39.357Z,1.80
2023-03-15T19:07:27.852Z,1.97
2023-03-15T19:10:16.462Z,1.83
2023-03-15T19:13:04.692Z,1.93
2023-03-15T19:15:53.134Z,2.17
2023-03-15T19:18:45.665Z,2.40
2023-03-15T19:21:32.664Z,1.87
2023-03-15T19:24:19.475Z,2.13
2023-03-15T19:27:10.601Z,2.10
2023-03-15T19:29:57.086Z,1.90
2023-03-15T19:32:47.776Z,2.23
2023-03-15T19:35:34.360Z,2.83
2023-03-15T19:38:21.541Z,1.60
2023-03-15T19:41:12.446Z,1.80
2023-03-15T19:43:59.373Z,1.80
2023-03-15T19:46:46.405Z,1.90
2023-03-15T19:49:34.827Z,2.23
2023-03-15T19:52:21.735Z,2.00
2023-03-15T19:55:09.166Z,1.60
2023-03-15T19:57:55.872Z,2.20
2023-03-15T20:00:42.492Z,2.30
2023-03-15T20:03:29.388Z,2.00
2023-03-15T20:06:17.547Z,1.80
2023-03-15T20:09:05.961Z,1.87
2023-03-15T20:11:52.610Z,1.90
2023-03-15T20:14:39.813Z,1.93
2023-03-15T20:17:31.382Z,1.93
2023-03-15T20:20:49.248Z,2.03
2023-03-15T20:23:48.232Z,1.80
2023-03-15T20:26:38.060Z,1.50
2023-03-15T20:29:26.712Z,2.03
2023-03-15T20:32:14.739Z,1.87
2023-03-15T20:35:02.504Z,1.80
2023-03-15T20:37:49.531Z,2.07
2023-03-15T20:40:41.549Z,2.20
2023-03-15T20:43:29.305Z,1.43
2023-03-15T20:46:18.962Z,1.87
2023-03-15T20:49:07.926Z,1.90
2023-03-15T20:51:55.426Z,1.87
2023-03-15T20:54:42.080Z,2.27
2023-03-15T20:57:30.230Z,1.97
2023-03-15T21:00:20.365Z,1.80
2023-03-15T21:03:08.231Z,1.60
2023-03-15T21:05:56.017Z,1.73
2023-03-15T21:08:44.004Z,1.83
2023-03-15T21:11:30.834Z,1.90
2023-03-15T21:14:19.108Z,1.80
2023-03-15T21:17:05.801Z,2.10
2023-03-15T21:19:53.650Z,1.90
2023-03-15T21:22:40.434Z,1.60
2023-03-15T21:25:27.271Z,1.70
2023-03-15T21:28:13.923Z,1.60
2023-03-15T21:31:02.346Z,1.67
2023-03-15T21:33:50.790Z,2.20
2023-03-15T21:36:37.539Z,1.73
2023-03-15T21:39:24.325Z,2.13
2023-03-15T21:42:11.407Z,1.73
2023-03-15T21:44:57.898Z,1.93
2023-03-15T21:47:47.128Z,1.77
2023-03-15T21:50:33.855Z,2.30
2023-03-15T21:53:20.743Z,2.27
2023-03-15T21:56:08.022Z,1.97
2023-03-15T21:58:55.009Z,1.90
2023-03-15T22:01:51.156Z,2.23
2023-03-15T22:04:41.746Z,1.80
2023-03-15T22:07:28.503Z,2.10
2023-03-15T22:10:15.948Z,2.07
2023-03-15T22:13:03.357Z,2.60
2023-03-15T22:15:50.126Z,1.90
2023-03-15T22:18:36.802Z,1.90
2023-03-15T22:21:24.572Z,1.70
2023-03-15T22:24:11.663Z,2.57
2023-03-15T22:26:58.669Z,2.20
2023-03-15T22:29:45.498Z,1.93
2023-03-15T22:32:32.141Z,2.27
2023-03-15T22:35:19.268Z,2.07
2023-03-15T22:38:10.245Z,2.03
2023-03-15T22:41:01.871Z,2.07
2023-03-15T22:43:48.542Z,2.20
2023-03-15T22:46:36.067Z,2.50
2023-03-15T22:49:23.810Z,3.22
2023-03-15T22:52:10.904Z,2.40
2023-03-15T22:54:58.693Z,2.47
2023-03-15T22:57:45.454Z,2.67
2023-03-15T23:00:32.290Z,2.30
2023-03-15T23:03:19.428Z,2.37
2023-03-15T23:06:06.712Z,2.03
2023-03-15T23:08:53.568Z,2.57
2023-03-15T23:11:41.658Z,2.60
2023-03-15T23:14:28.299Z,2.57
2023-03-15T23:17:15.295Z,2.83
2023-03-15T23:20:02.199Z,2.23
2023-03-15T23:22:49.640Z,2.77
2023-03-15T23:25:38.987Z,2.80
2023-03-15T23:28:27.040Z,3.07
2023-03-15T23:31:13.931Z,2.53
2023-03-15T23:34:00.328Z,2.73
2023-03-15T23:36:47.172Z,2.70
2023-03-15T23:39:33.927Z,2.60
2023-03-15T23:42:20.561Z,2.53
2023-03-15T23:45:10.521Z,2.70
2023-03-15T23:47:57.437Z,2.80
2023-03-15T23:50:44.445Z,2.60
2023-03-15T23:53:31.731Z,2.07
2023-03-15T23:56:18.561Z,2.67
2023-03-15T23:59:05.456Z,2.40
